Hauptseite
METAR-TAF:

METAR-TAF

Flughäfen :

Linden, New Jersey, Vereinigte Staaten

Breite: 40-37-03N, Länge: 074-14-40W, Höhe: 7 m

Beobachtung

Neuester Wetterbericht von vor 25 Minuten, um 00:35 UTC
Wind 7 kt aus Süd/Südost
Temperatur 14°C
Luftfeuchtigkeit 82%
Luftdruck 1024 hPa
Sichtweite: 16.1 km
Himmel klar

METAR: KLDJ 250035Z AUTO 16007KT 10SM CLR 14/11 A3023 RMK AO2 T01430108

Zeit: 21:00 (01:00 UTC)


TAF: fehlend

Wetterbeobachtungen und Prognosen von mehr als 4000 Flughäfen (METAR und TAF Bericht).

Die verfügbaren Stationen werden durch gelbe und rote Markierungen auf der Karte dargestellt.

Führen Sie die Maus auf sie, um den Namen der Station zu sehen.

Darauf klicken, um die Beobachtung von Wetterbeobachtungen und Prognosen zu sehen.

Um die Karte zu ändern : klicken Sie auf den grünen Tasten mit einem schwarzen Kreuz Zum Vergrößern, auf den grünen Button mit einem Gedankenstrich zu verkleinern, oder auf die grünen Pfeile für benachbarte Karten.


METAR-TAF: